createdAt,value
2017-02-26T00:00:45.477Z,962.9
2017-02-26T00:01:56.172Z,962.86
2017-02-26T00:03:06.478Z,962.82
2017-02-26T00:04:17.214Z,962.82
2017-02-26T00:05:27.516Z,962.86
2017-02-26T00:06:38.235Z,962.87
2017-02-26T00:07:48.533Z,962.84
2017-02-26T00:08:59.247Z,962.9
2017-02-26T00:10:09.953Z,962.94
2017-02-26T00:11:20.676Z,962.93
2017-02-26T00:12:31.008Z,962.94
2017-02-26T00:13:41.740Z,962.97
2017-02-26T00:14:52.464Z,963
2017-02-26T00:16:03.178Z,963.03
2017-02-26T00:17:13.866Z,963.03
2017-02-26T00:18:24.573Z,963.1
2017-02-26T00:19:35.270Z,963.14
2017-02-26T00:20:45.965Z,963.1
2017-02-26T00:21:56.668Z,963.12
2017-02-26T00:23:06.985Z,963.13
2017-02-26T00:24:17.686Z,963.13
2017-02-26T00:25:27.990Z,963.15
2017-02-26T00:26:38.679Z,963.16
2017-02-26T00:27:48.971Z,963.2
2017-02-26T00:28:59.678Z,963.24
2017-02-26T00:30:10.390Z,963.25
2017-02-26T00:31:21.102Z,963.25
2017-02-26T00:32:31.820Z,963.28
2017-02-26T00:33:42.520Z,963.27
2017-02-26T00:34:53.229Z,963.3
2017-02-26T00:36:03.938Z,963.27
2017-02-26T00:37:14.239Z,963.2
2017-02-26T00:38:24.948Z,963.15
2017-02-26T00:39:35.643Z,963.11
2017-02-26T00:40:46.356Z,963.18
2017-02-26T00:41:57.057Z,963.14
2017-02-26T00:43:07.766Z,963.14
2017-02-26T00:44:18.458Z,963.1
2017-02-26T00:45:29.161Z,963.13
2017-02-26T00:46:39.861Z,963.15
2017-02-26T00:47:50.161Z,963.24
2017-02-26T00:49:00.849Z,963.18
2017-02-26T00:50:11.547Z,963.19
2017-02-26T00:51:21.844Z,963.17
2017-02-26T00:52:32.551Z,963.18
2017-02-26T00:53:43.254Z,963.2
2017-02-26T00:54:53.949Z,963.21
2017-02-26T00:56:04.661Z,963.2
2017-02-26T00:57:14.562Z,963.19
2017-02-26T00:58:25.268Z,963.2
2017-02-26T00:59:35.572Z,963.22
2017-02-26T01:00:46.265Z,963.22
2017-02-26T01:01:56.968Z,963.23
2017-02-26T01:03:07.660Z,963.28
2017-02-26T01:04:18.385Z,963.28
2017-02-26T01:05:28.289Z,963.27
2017-02-26T01:06:38.594Z,963.28
2017-02-26T01:07:49.312Z,963.23
2017-02-26T01:09:00.006Z,963.24
2017-02-26T01:10:10.706Z,963.22
2017-02-26T01:11:21.020Z,963.21
2017-02-26T01:12:31.719Z,963.18
2017-02-26T01:13:42.408Z,963.16
2017-02-26T01:14:53.094Z,963.19
2017-02-26T01:16:03.826Z,963.19
2017-02-26T01:17:14.117Z,963.15
2017-02-26T01:18:24.821Z,963.16
2017-02-26T01:19:35.537Z,963.15
2017-02-26T01:20:46.232Z,963.16
2017-02-26T01:21:56.935Z,963.12
2017-02-26T01:23:07.628Z,963.13
2017-02-26T01:24:20.322Z,963.08
2017-02-26T01:25:30.622Z,963.14
2017-02-26T01:26:40.965Z,963.21
2017-02-26T01:27:51.667Z,963.22
2017-02-26T01:29:02.364Z,963.33
2017-02-26T01:30:13.080Z,963.28
2017-02-26T01:31:23.371Z,963.24
2017-02-26T01:32:34.053Z,963.3
2017-02-26T01:33:44.353Z,963.29
2017-02-26T01:34:55.044Z,963.23
2017-02-26T01:36:05.750Z,963.28
2017-02-26T01:37:16.451Z,963.24
2017-02-26T01:38:26.747Z,963.25
2017-02-26T01:39:37.461Z,963.33
2017-02-26T01:40:47.772Z,963.28
2017-02-26T01:41:58.485Z,963.29
2017-02-26T01:43:08.790Z,963.3
2017-02-26T01:44:19.488Z,963.28
2017-02-26T01:45:30.172Z,963.33
2017-02-26T01:46:40.887Z,963.47
2017-02-26T01:47:51.580Z,963.48
2017-02-26T01:49:01.900Z,963.56
2017-02-26T01:50:12.586Z,963.57
2017-02-26T01:51:23.277Z,963.57
2017-02-26T01:52:33.588Z,963.6
2017-02-26T01:53:44.291Z,963.58
2017-02-26T01:54:54.993Z,963.63
2017-02-26T01:56:05.678Z,963.61
2017-02-26T01:57:16.363Z,963.59
2017-02-26T01:58:27.062Z,963.51
2017-02-26T01:59:37.744Z,963.53
2017-02-26T02:00:48.438Z,963.56
2017-02-26T02:01:59.144Z,963.6
2017-02-26T02:03:09.830Z,963.68
2017-02-26T02:04:20.526Z,963.75
2017-02-26T02:05:30.816Z,963.76
2017-02-26T02:06:41.537Z,963.74
2017-02-26T02:07:52.236Z,963.74
2017-02-26T02:09:02.937Z,963.79
2017-02-26T02:10:13.639Z,963.76
2017-02-26T02:11:24.337Z,963.74
2017-02-26T02:12:34.271Z,963.74
2017-02-26T02:13:44.983Z,963.71
2017-02-26T02:14:55.692Z,963.75
2017-02-26T02:16:06.018Z,963.8
2017-02-26T02:17:18.729Z,963.8
2017-02-26T02:18:29.019Z,963.79
2017-02-26T02:19:39.349Z,963.8
2017-02-26T02:20:50.051Z,963.8
2017-02-26T02:22:00.740Z,963.83
2017-02-26T02:23:13.129Z,963.83
2017-02-26T02:24:23.832Z,963.77
2017-02-26T02:25:34.135Z,963.79
2017-02-26T02:26:44.833Z,963.77
2017-02-26T02:27:55.536Z,963.75
2017-02-26T02:29:06.245Z,963.82
2017-02-26T02:30:16.934Z,963.86
2017-02-26T02:31:26.846Z,963.88
2017-02-26T02:32:37.539Z,963.9
2017-02-26T02:33:48.236Z,963.93
2017-02-26T02:34:58.549Z,963.96
2017-02-26T02:36:09.236Z,963.91
2017-02-26T02:37:19.966Z,963.85
2017-02-26T02:38:29.857Z,963.83
2017-02-26T02:39:40.538Z,963.77
2017-02-26T02:40:51.238Z,963.76
2017-02-26T02:42:01.945Z,963.8
2017-02-26T02:43:12.654Z,963.83
2017-02-26T02:44:23.350Z,963.85
2017-02-26T02:45:34.047Z,963.88
2017-02-26T02:46:44.344Z,963.86
2017-02-26T02:47:55.030Z,963.89
2017-02-26T02:49:05.731Z,963.9
2017-02-26T02:50:16.033Z,963.93
2017-02-26T02:51:26.736Z,963.94
2017-02-26T02:52:36.664Z,963.93
2017-02-26T02:53:47.360Z,963.95
2017-02-26T02:54:58.070Z,963.98
2017-02-26T02:56:08.775Z,964.03
2017-02-26T02:57:19.081Z,964.08
2017-02-26T02:58:29.371Z,964.1
2017-02-26T02:59:40.067Z,964.03
2017-02-26T03:00:50.378Z,964.03
2017-02-26T03:02:01.077Z,964.03
2017-02-26T03:03:11.383Z,963.95
2017-02-26T03:04:21.835Z,964.04
2017-02-26T03:05:32.548Z,964
2017-02-26T03:06:43.233Z,963.98
2017-02-26T03:07:53.915Z,963.99
2017-02-26T03:09:04.624Z,963.99
2017-02-26T03:10:15.671Z,963.96
2017-02-26T03:11:26.381Z,963.91
2017-02-26T03:12:36.676Z,963.96
2017-02-26T03:13:46.979Z,963.97
2017-02-26T03:14:57.279Z,963.96
2017-02-26T03:17:22.247Z,964.12
2017-02-26T03:18:32.579Z,964.03
2017-02-26T03:19:42.877Z,964
2017-02-26T03:20:53.597Z,964.01
2017-02-26T03:22:04.294Z,963.96
2017-02-26T03:23:14.589Z,963.89
2017-02-26T03:24:25.284Z,963.87
2017-02-26T03:25:35.244Z,963.85
2017-02-26T03:26:45.949Z,963.95
2017-02-26T03:27:56.932Z,963.93
2017-02-26T03:29:07.640Z,963.94
2017-02-26T03:30:18.331Z,963.84
2017-02-26T03:31:28.632Z,963.84
2017-02-26T03:32:39.331Z,963.84
2017-02-26T03:33:50.020Z,963.83
2017-02-26T03:35:00.713Z,963.83
2017-02-26T03:36:11.009Z,963.82
2017-02-26T03:37:21.716Z,963.81
2017-02-26T03:38:31.618Z,963.81
2017-02-26T03:39:42.303Z,963.79
2017-02-26T03:40:53.032Z,963.82
2017-02-26T03:42:03.735Z,963.9
2017-02-26T03:43:13.632Z,963.88
2017-02-26T03:44:24.338Z,963.89
2017-02-26T03:45:35.030Z,963.84
2017-02-26T03:46:45.726Z,963.84
2017-02-26T03:47:56.428Z,963.91
2017-02-26T03:49:07.121Z,963.89
2017-02-26T03:50:17.418Z,963.97
2017-02-26T03:51:27.699Z,963.99
2017-02-26T03:52:38.006Z,963.94
2017-02-26T03:53:48.311Z,963.87
2017-02-26T03:54:59.005Z,963.9
2017-02-26T03:56:09.687Z,963.82
2017-02-26T03:57:20.388Z,963.86
2017-02-26T03:58:31.095Z,963.88
2017-02-26T03:59:40.997Z,963.81
2017-02-26T04:00:51.328Z,963.73
2017-02-26T04:02:02.024Z,963.71
2017-02-26T04:03:12.789Z,963.73
2017-02-26T04:04:23.504Z,963.73
2017-02-26T04:05:33.801Z,963.75
2017-02-26T04:06:44.497Z,963.77
2017-02-26T04:07:55.221Z,963.78
2017-02-26T04:09:05.915Z,963.72
2017-02-26T04:10:16.652Z,963.72
2017-02-26T04:11:27.350Z,963.7
2017-02-26T04:12:38.054Z,963.75
2017-02-26T04:13:48.755Z,963.75
2017-02-26T04:14:59.503Z,963.8
2017-02-26T04:16:10.199Z,963.73
2017-02-26T04:17:20.884Z,963.73
2017-02-26T04:18:31.185Z,963.69
2017-02-26T04:19:41.887Z,963.66
2017-02-26T04:20:52.582Z,963.66
2017-02-26T04:22:03.268Z,963.66
2017-02-26T04:23:13.980Z,963.67
2017-02-26T04:24:24.667Z,963.62
2017-02-26T04:25:35.044Z,963.61
2017-02-26T04:26:45.368Z,963.65
2017-02-26T04:27:56.081Z,963.72
2017-02-26T04:29:06.777Z,963.73
2017-02-26T04:30:17.491Z,963.79
2017-02-26T04:31:28.178Z,963.82
2017-02-26T04:32:38.877Z,963.81
2017-02-26T04:33:49.601Z,963.8
2017-02-26T04:35:00.316Z,963.8
2017-02-26T04:36:11.009Z,963.79
2017-02-26T04:37:21.310Z,963.93
2017-02-26T04:38:31.607Z,963.98
2017-02-26T04:39:41.914Z,963.91
2017-02-26T04:40:52.607Z,963.9
2017-02-26T04:42:03.310Z,963.95
2017-02-26T04:43:13.606Z,963.98
2017-02-26T04:44:23.897Z,963.96
2017-02-26T04:45:34.596Z,964.02
2017-02-26T04:46:45.301Z,963.98
2017-02-26T04:47:56.007Z,963.99
2017-02-26T04:49:06.716Z,964.01
2017-02-26T04:50:17.426Z,964.03
2017-02-26T04:51:28.127Z,964.03
2017-02-26T04:52:38.029Z,964.05
2017-02-26T04:53:48.738Z,964.04
2017-02-26T04:54:59.524Z,964.15
2017-02-26T04:56:10.238Z,964.16
2017-02-26T04:57:20.542Z,964.18
2017-02-26T04:58:30.466Z,964.23
2017-02-26T04:59:41.154Z,964.19
2017-02-26T05:00:51.851Z,964.19
2017-02-26T05:02:02.551Z,964.18
2017-02-26T05:03:13.237Z,964.21
2017-02-26T05:04:23.945Z,964.14
2017-02-26T05:05:34.629Z,964.14
2017-02-26T05:06:45.328Z,964.15
2017-02-26T05:07:56.025Z,964.19
2017-02-26T05:09:06.745Z,964.23
2017-02-26T05:10:17.446Z,964.24
2017-02-26T05:11:27.745Z,964.25
2017-02-26T05:12:38.475Z,964.25
2017-02-26T05:13:49.196Z,964.24
2017-02-26T05:14:59.892Z,964.25
2017-02-26T05:16:10.601Z,964.23
2017-02-26T05:17:20.913Z,964.21
2017-02-26T05:18:31.220Z,964.23
2017-02-26T05:19:41.559Z,964.22
2017-02-26T05:20:52.256Z,964.26
2017-02-26T05:22:02.952Z,964.25
2017-02-26T05:23:13.656Z,964.24
2017-02-26T05:24:24.369Z,964.2
2017-02-26T05:25:34.283Z,964.2
2017-02-26T05:26:44.978Z,964.2
2017-02-26T05:27:55.665Z,964.25
2017-02-26T05:29:06.388Z,964.25
2017-02-26T05:30:17.080Z,964.27
2017-02-26T05:31:27.765Z,964.27
2017-02-26T05:32:38.477Z,964.31
2017-02-26T05:33:49.180Z,964.33
2017-02-26T05:34:59.893Z,964.37
2017-02-26T05:36:10.595Z,964.37
2017-02-26T05:37:20.890Z,964.31
2017-02-26T05:38:31.182Z,964.31
2017-02-26T05:39:41.488Z,964.34
2017-02-26T05:40:52.195Z,964.36
2017-02-26T05:42:02.896Z,964.38
2017-02-26T05:43:13.591Z,964.39
2017-02-26T05:44:23.897Z,964.38
2017-02-26T05:45:34.203Z,964.4
2017-02-26T05:46:44.508Z,964.43
2017-02-26T05:47:55.248Z,964.39
2017-02-26T05:49:05.935Z,964.41
2017-02-26T05:50:16.636Z,964.36
2017-02-26T05:51:27.347Z,964.34
2017-02-26T05:52:37.637Z,964.32
2017-02-26T05:53:48.339Z,964.35
2017-02-26T05:54:59.049Z,964.29
2017-02-26T05:56:09.748Z,964.32
2017-02-26T05:57:20.061Z,964.37
2017-02-26T05:58:30.756Z,964.4
2017-02-26T05:59:41.473Z,964.4
2017-02-26T06:00:52.175Z,964.41
2017-02-26T06:02:02.876Z,964.42
2017-02-26T06:03:13.564Z,964.51
2017-02-26T06:04:24.263Z,964.51
2017-02-26T06:05:34.960Z,964.48
2017-02-26T06:06:45.667Z,964.5
2017-02-26T06:07:56.360Z,964.49
2017-02-26T06:09:07.060Z,964.54
2017-02-26T06:10:17.397Z,964.55
2017-02-26T06:11:28.085Z,964.54
2017-02-26T06:12:38.766Z,964.53
2017-02-26T06:13:49.457Z,964.55
2017-02-26T06:15:00.148Z,964.59
2017-02-26T06:16:10.846Z,964.65
2017-02-26T06:17:21.543Z,964.64
2017-02-26T06:18:31.867Z,964.64
2017-02-26T06:19:42.590Z,964.66
2017-02-26T06:20:53.289Z,964.67
2017-02-26T06:22:03.990Z,964.65
2017-02-26T06:23:14.703Z,964.68
2017-02-26T06:24:25.004Z,964.69
2017-02-26T06:25:35.703Z,964.72
2017-02-26T06:26:46.405Z,964.72
2017-02-26T06:27:57.112Z,964.74
2017-02-26T06:29:07.802Z,964.72
2017-02-26T06:30:18.504Z,964.76
2017-02-26T06:31:28.803Z,964.76
2017-02-26T06:32:39.493Z,964.76
2017-02-26T06:33:49.794Z,964.77
2017-02-26T06:35:00.504Z,964.79
2017-02-26T06:36:11.207Z,964.8
2017-02-26T06:37:21.508Z,964.83
2017-02-26T06:38:32.207Z,964.84
2017-02-26T06:39:42.905Z,964.87
2017-02-26T06:40:53.616Z,964.81
2017-02-26T06:42:04.305Z,964.82
2017-02-26T06:43:15.027Z,964.79
2017-02-26T06:44:25.728Z,964.83
2017-02-26T06:45:36.432Z,964.8
2017-02-26T06:46:47.124Z,964.84
2017-02-26T06:47:57.823Z,964.83
2017-02-26T06:49:08.549Z,964.89
2017-02-26T06:50:19.272Z,964.88
2017-02-26T06:51:29.582Z,964.94
2017-02-26T06:52:40.270Z,964.97
2017-02-26T06:53:50.981Z,965.05
2017-02-26T06:55:01.685Z,965.05
2017-02-26T06:56:12.419Z,965.15
2017-02-26T06:57:23.130Z,965.16
2017-02-26T06:58:33.840Z,965.14
2017-02-26T06:59:44.539Z,965.08
2017-02-26T07:00:54.885Z,965.13
2017-02-26T07:02:05.588Z,965.12
2017-02-26T07:03:15.916Z,965.15
2017-02-26T07:04:26.208Z,965.18
2017-02-26T07:05:36.506Z,965.22
2017-02-26T07:06:47.203Z,965.22
2017-02-26T07:07:57.897Z,965.23
2017-02-26T07:09:08.606Z,965.25
2017-02-26T07:10:19.328Z,965.24
2017-02-26T07:11:29.690Z,965.25
2017-02-26T07:12:39.986Z,965.29
2017-02-26T07:13:50.301Z,965.24
2017-02-26T07:15:00.997Z,965.26
2017-02-26T07:16:11.302Z,965.25
2017-02-26T07:17:22.011Z,965.26
2017-02-26T07:18:32.323Z,965.3
2017-02-26T07:19:43.031Z,965.29
2017-02-26T07:20:53.739Z,965.27
2017-02-26T07:22:04.427Z,965.33
2017-02-26T07:23:15.121Z,965.34
2017-02-26T07:24:25.816Z,965.34
2017-02-26T07:25:35.729Z,965.4
2017-02-26T07:26:46.035Z,965.44
2017-02-26T07:27:56.754Z,965.39
2017-02-26T07:29:07.463Z,965.36
2017-02-26T07:30:17.797Z,965.41
2017-02-26T07:31:28.499Z,965.36
2017-02-26T07:32:39.201Z,965.39
2017-02-26T07:33:49.914Z,965.42
2017-02-26T07:35:00.619Z,965.39
2017-02-26T07:36:11.324Z,965.37
2017-02-26T07:37:22.016Z,965.38
2017-02-26T07:38:32.727Z,965.35
2017-02-26T07:39:43.029Z,965.35
2017-02-26T07:40:53.723Z,965.3
2017-02-26T07:42:04.414Z,965.35
2017-02-26T07:43:14.710Z,965.33
2017-02-26T07:44:25.419Z,965.33
2017-02-26T07:45:35.340Z,965.34
2017-02-26T07:46:45.648Z,965.32
2017-02-26T07:47:56.341Z,965.34
2017-02-26T07:49:07.030Z,965.31
2017-02-26T07:50:17.721Z,965.36
2017-02-26T07:51:28.424Z,965.38
2017-02-26T07:52:39.156Z,965.39
2017-02-26T07:53:49.850Z,965.45
2017-02-26T07:55:00.548Z,965.4
2017-02-26T07:56:11.268Z,965.46
2017-02-26T07:57:21.971Z,965.45
2017-02-26T07:58:32.696Z,965.44
2017-02-26T07:59:43.406Z,965.45
2017-02-26T08:00:53.698Z,965.42
2017-02-26T08:02:04.388Z,965.48
2017-02-26T08:03:14.307Z,965.48
2017-02-26T08:04:24.604Z,965.48
2017-02-26T08:05:34.899Z,965.48
2017-02-26T08:06:45.597Z,965.53
2017-02-26T08:07:56.286Z,965.47
2017-02-26T08:09:06.599Z,965.53
2017-02-26T08:10:16.909Z,965.58
2017-02-26T08:11:27.204Z,965.62
2017-02-26T08:12:37.889Z,965.65
2017-02-26T08:13:47.795Z,965.65
2017-02-26T08:14:58.499Z,965.68
2017-02-26T08:16:09.192Z,965.76
2017-02-26T08:17:19.889Z,965.75
2017-02-26T08:18:30.595Z,965.8
2017-02-26T08:19:41.303Z,965.78
2017-02-26T08:20:51.193Z,965.85
2017-02-26T08:22:01.889Z,965.83
2017-02-26T08:23:12.596Z,965.86
2017-02-26T08:24:23.313Z,965.82
2017-02-26T08:25:33.609Z,965.87
2017-02-26T08:26:44.299Z,965.86
2017-02-26T08:27:55.030Z,965.88
2017-02-26T08:29:05.729Z,965.87
2017-02-26T08:30:16.450Z,965.85
2017-02-26T08:31:27.140Z,965.86
2017-02-26T08:32:37.852Z,965.88
2017-02-26T08:33:47.769Z,965.83
2017-02-26T08:34:58.469Z,965.81
2017-02-26T08:36:08.790Z,965.87
2017-02-26T08:37:19.503Z,965.83
2017-02-26T08:38:29.809Z,965.84
2017-02-26T08:39:40.499Z,965.87
2017-02-26T08:40:50.794Z,965.92
2017-02-26T08:42:01.502Z,965.91
2017-02-26T08:43:11.795Z,965.91
2017-02-26T08:44:21.735Z,965.89
2017-02-26T08:45:32.450Z,965.89
2017-02-26T08:46:43.202Z,965.9
2017-02-26T08:47:53.555Z,965.9
2017-02-26T08:49:03.858Z,965.92
2017-02-26T08:50:14.569Z,966.01
2017-02-26T08:51:25.259Z,966.02
2017-02-26T08:52:35.577Z,966.02
2017-02-26T08:53:46.278Z,966
2017-02-26T08:54:56.987Z,966.03
2017-02-26T08:56:06.884Z,965.99
2017-02-26T08:57:17.188Z,965.99
2017-02-26T08:58:27.884Z,966
2017-02-26T08:59:38.583Z,965.94
2017-02-26T09:00:48.506Z,965.91
2017-02-26T09:01:59.217Z,965.9
2017-02-26T09:03:09.942Z,965.92
2017-02-26T09:04:20.662Z,965.9
2017-02-26T09:05:31.349Z,965.95
2017-02-26T09:06:42.051Z,965.91
2017-02-26T09:07:52.367Z,965.94
2017-02-26T09:09:02.684Z,965.96
2017-02-26T09:10:13.377Z,966.02
2017-02-26T09:11:24.071Z,965.99
2017-02-26T09:12:34.773Z,966.06
2017-02-26T09:13:45.069Z,966.04
2017-02-26T09:14:55.785Z,966.07
2017-02-26T09:16:06.488Z,966.09
2017-02-26T09:17:17.181Z,966.1
2017-02-26T09:18:27.894Z,966.12
2017-02-26T09:19:38.590Z,966.13
2017-02-26T09:20:49.294Z,966.1
2017-02-26T09:21:59.593Z,966.12
2017-02-26T09:23:10.311Z,966.12
2017-02-26T09:24:20.610Z,966.19
2017-02-26T09:25:31.320Z,966.19
2017-02-26T09:26:42.019Z,966.22
2017-02-26T09:27:52.731Z,966.21
2017-02-26T09:29:03.435Z,966.26
2017-02-26T09:30:14.146Z,966.2
2017-02-26T09:31:24.845Z,966.15
2017-02-26T09:32:35.143Z,966.1
2017-02-26T09:33:45.855Z,966.08
2017-02-26T09:34:56.550Z,966.01
2017-02-26T09:36:07.251Z,966.02
2017-02-26T09:37:17.965Z,966.08
2017-02-26T09:38:27.862Z,966.17
2017-02-26T09:39:38.556Z,966.25
2017-02-26T09:40:48.871Z,966.29
2017-02-26T09:41:58.771Z,966.35
2017-02-26T09:43:09.497Z,966.44
2017-02-26T09:44:19.387Z,966.43
2017-02-26T09:45:30.097Z,966.42
2017-02-26T09:46:40.783Z,966.41
2017-02-26T09:47:51.544Z,966.45
2017-02-26T09:49:02.305Z,966.48
2017-02-26T09:50:13.086Z,966.5
2017-02-26T09:51:23.803Z,966.6
2017-02-26T09:52:33.714Z,966.66
2017-02-26T09:53:44.451Z,966.7
2017-02-26T09:54:54.795Z,966.67
2017-02-26T09:56:05.504Z,966.68
2017-02-26T09:57:16.211Z,966.71
2017-02-26T09:58:26.935Z,966.71
2017-02-26T09:59:37.684Z,966.7
2017-02-26T10:00:48.405Z,966.72
2017-02-26T10:01:58.776Z,966.64
2017-02-26T10:03:09.474Z,966.58
2017-02-26T10:04:20.199Z,966.56
2017-02-26T10:05:30.940Z,966.52
2017-02-26T10:06:41.632Z,966.57
2017-02-26T10:07:52.327Z,966.56
2017-02-26T10:09:02.641Z,966.57
2017-02-26T10:10:12.954Z,966.52
2017-02-26T10:11:23.668Z,966.54
2017-02-26T10:12:33.175Z,966.52
2017-02-26T10:13:43.483Z,966.53
2017-02-26T10:14:54.193Z,966.54
2017-02-26T10:16:04.911Z,966.51
2017-02-26T10:17:15.619Z,966.51
2017-02-26T10:18:26.338Z,966.48
2017-02-26T10:19:37.060Z,966.45
2017-02-26T10:20:47.360Z,966.47
2017-02-26T10:21:57.671Z,966.44
2017-02-26T10:23:07.970Z,966.44
2017-02-26T10:24:18.685Z,966.46
2017-02-26T10:25:29.390Z,966.47
2017-02-26T10:26:40.096Z,966.47
2017-02-26T10:27:50.418Z,966.55
2017-02-26T10:29:00.750Z,966.59
2017-02-26T10:30:11.444Z,966.64
2017-02-26T10:31:22.149Z,966.63
2017-02-26T10:32:32.472Z,966.62
2017-02-26T10:33:43.188Z,966.6
2017-02-26T10:34:53.509Z,966.56
2017-02-26T10:36:04.223Z,966.6
2017-02-26T10:37:14.924Z,966.63
2017-02-26T10:38:25.632Z,966.6
2017-02-26T10:39:35.554Z,966.59
2017-02-26T10:40:45.861Z,966.59
2017-02-26T10:41:56.556Z,966.7
2017-02-26T10:43:06.861Z,966.71
2017-02-26T10:44:17.568Z,966.76
2017-02-26T10:45:28.264Z,966.69
2017-02-26T10:46:38.966Z,966.68
2017-02-26T10:47:49.273Z,966.7
2017-02-26T10:48:59.593Z,966.7
2017-02-26T10:50:10.286Z,966.61
2017-02-26T10:51:20.595Z,966.6
2017-02-26T10:52:31.312Z,966.65
2017-02-26T10:53:41.642Z,966.64
2017-02-26T10:54:52.345Z,966.55
2017-02-26T10:56:03.053Z,966.51
2017-02-26T10:57:13.374Z,966.45
2017-02-26T10:58:24.076Z,966.48
2017-02-26T10:59:34.785Z,966.46
2017-02-26T11:00:45.509Z,966.41
2017-02-26T11:01:56.221Z,966.43
2017-02-26T11:03:06.924Z,966.42
2017-02-26T11:04:17.637Z,966.43
2017-02-26T11:05:28.336Z,966.44
2017-02-26T11:06:39.028Z,966.42
2017-02-26T11:07:49.719Z,966.44
2017-02-26T11:09:00.442Z,966.44
2017-02-26T11:10:10.742Z,966.45
2017-02-26T11:11:21.438Z,966.47
2017-02-26T11:12:31.756Z,966.44
2017-02-26T11:13:42.087Z,966.45
2017-02-26T11:14:52.789Z,966.44
2017-02-26T11:16:03.114Z,966.44
2017-02-26T11:17:13.832Z,966.47
2017-02-26T11:18:24.555Z,966.43
2017-02-26T11:19:34.863Z,966.43
2017-02-26T11:20:45.163Z,966.48
2017-02-26T11:21:55.493Z,966.47
2017-02-26T11:23:06.218Z,966.52
2017-02-26T11:24:16.529Z,966.48
2017-02-26T11:25:27.266Z,966.54
2017-02-26T11:26:37.183Z,966.56
2017-02-26T11:27:47.505Z,966.52
2017-02-26T11:28:58.234Z,966.49
2017-02-26T11:30:08.956Z,966.45
2017-02-26T11:31:19.662Z,966.41
2017-02-26T11:32:30.387Z,966.4
2017-02-26T11:33:41.112Z,966.41
2017-02-26T11:34:51.827Z,966.43
2017-02-26T11:36:02.532Z,966.42
2017-02-26T11:37:12.845Z,966.45
2017-02-26T11:38:23.556Z,966.4
2017-02-26T11:39:34.267Z,966.38
2017-02-26T11:40:44.586Z,966.4
2017-02-26T11:41:54.900Z,966.37
2017-02-26T11:43:05.608Z,966.39
2017-02-26T11:44:15.910Z,966.38
2017-02-26T11:45:25.833Z,966.37
2017-02-26T11:46:36.573Z,966.37
2017-02-26T11:47:47.295Z,966.43
2017-02-26T11:48:57.631Z,966.51
2017-02-26T11:50:08.341Z,966.57
2017-02-26T11:51:19.057Z,966.63
2017-02-26T11:52:29.765Z,966.72
2017-02-26T11:53:40.478Z,966.71
2017-02-26T11:54:51.194Z,966.59
2017-02-26T11:56:00.718Z,966.53
2017-02-26T11:57:11.434Z,966.36
2017-02-26T11:58:22.162Z,966.31
2017-02-26T11:59:32.876Z,966.26
2017-02-26T12:00:43.597Z,966.23
2017-02-26T12:01:54.309Z,966.27
2017-02-26T12:03:05.036Z,966.28
2017-02-26T12:04:15.754Z,966.3
2017-02-26T12:05:26.075Z,966.39
2017-02-26T12:06:36.783Z,966.32
2017-02-26T12:07:47.515Z,966.34
2017-02-26T12:08:58.226Z,966.37
2017-02-26T12:10:08.954Z,966.33
2017-02-26T12:11:19.672Z,966.31
2017-02-26T12:12:30.381Z,966.33
2017-02-26T12:13:41.092Z,966.36
2017-02-26T12:14:51.015Z,966.43
2017-02-26T12:16:01.343Z,966.37
2017-02-26T12:17:11.673Z,966.4
2017-02-26T12:18:22.386Z,966.42
2017-02-26T12:19:32.706Z,966.38
2017-02-26T12:20:43.050Z,966.33
2017-02-26T12:21:53.782Z,966.38
2017-02-26T12:23:03.705Z,966.33
2017-02-26T12:24:14.423Z,966.35
2017-02-26T12:25:25.157Z,966.3
2017-02-26T12:26:35.881Z,966.33
2017-02-26T12:27:46.194Z,966.35
2017-02-26T12:28:56.502Z,966.3
2017-02-26T12:30:07.222Z,966.32
2017-02-26T12:31:17.537Z,966.36
2017-02-26T12:32:27.866Z,966.38
2017-02-26T12:33:38.200Z,966.41
2017-02-26T12:34:48.923Z,966.42
2017-02-26T12:35:59.659Z,967.35
2017-02-26T12:37:10.378Z,967.95
2017-02-26T12:38:20.692Z,967.72
2017-02-26T12:39:31.413Z,967.74
2017-02-26T12:40:42.143Z,967.64
2017-02-26T12:41:52.882Z,967.24
2017-02-26T12:43:03.612Z,967.03
2017-02-26T12:44:14.327Z,967.09
2017-02-26T12:45:25.045Z,967.05
2017-02-26T12:46:35.388Z,967.06
2017-02-26T12:47:45.710Z,967.14
2017-02-26T12:48:56.040Z,967.15
2017-02-26T12:50:06.758Z,967.1
2017-02-26T12:51:17.465Z,967.07
2017-02-26T12:52:28.184Z,967
2017-02-26T12:53:38.516Z,967.07
2017-02-26T12:54:48.895Z,967.07
2017-02-26T12:55:59.610Z,967.16
2017-02-26T12:57:10.353Z,967.19
2017-02-26T12:58:21.064Z,967.22
2017-02-26T12:59:31.788Z,967.15
2017-02-26T13:00:42.503Z,966.95
2017-02-26T13:01:53.278Z,966.97
2017-02-26T13:03:03.593Z,967.01
2017-02-26T13:04:14.414Z,967.09
2017-02-26T13:05:24.732Z,967.13
2017-02-26T13:06:35.469Z,967.09
2017-02-26T13:07:45.794Z,967.04
2017-02-26T13:08:56.546Z,967.09
2017-02-26T13:10:07.283Z,967.13
2017-02-26T13:11:17.998Z,967.2
2017-02-26T13:12:28.309Z,967.2
2017-02-26T13:13:39.041Z,967.17
2017-02-26T13:14:49.771Z,967.2
2017-02-26T13:16:00.482Z,967.12
2017-02-26T13:17:11.201Z,966.84
2017-02-26T13:18:21.948Z,966.75
2017-02-26T13:19:32.675Z,966.68
2017-02-26T13:20:42.989Z,966.57
2017-02-26T13:21:53.715Z,966.45
2017-02-26T13:23:04.021Z,966.35
2017-02-26T13:24:14.746Z,966.34
2017-02-26T13:25:25.476Z,966.32
2017-02-26T13:26:36.203Z,966.19
2017-02-26T13:27:46.511Z,966.41
2017-02-26T13:28:57.231Z,966.35
2017-02-26T13:30:07.583Z,966.35
2017-02-26T13:31:18.291Z,966.29
2017-02-26T13:32:28.607Z,966.33
2017-02-26T13:33:38.921Z,966.26
2017-02-26T13:34:49.633Z,966.28
2017-02-26T13:35:59.963Z,966.32
2017-02-26T13:37:10.292Z,966.28
2017-02-26T13:38:21.000Z,966.43
2017-02-26T13:39:31.768Z,966.7
2017-02-26T13:40:41.690Z,966.56
2017-02-26T13:41:52.462Z,966.26
2017-02-26T13:43:03.175Z,966.28
2017-02-26T13:44:13.882Z,966.27
2017-02-26T13:45:24.206Z,966.45
2017-02-26T13:46:34.139Z,966.73
2017-02-26T13:47:44.455Z,966.64
2017-02-26T13:48:54.774Z,966.55
2017-02-26T13:50:05.477Z,966.54
2017-02-26T13:51:16.192Z,966.37
2017-02-26T13:52:26.510Z,966.44
2017-02-26T13:53:37.240Z,966.75
2017-02-26T13:54:47.961Z,966.89
2017-02-26T13:55:58.673Z,966.8
2017-02-26T13:57:09.380Z,966.79
2017-02-26T13:58:20.096Z,966.5
2017-02-26T13:59:30.817Z,966.41
2017-02-26T14:00:41.118Z,966.36
2017-02-26T14:01:51.858Z,966.45
2017-02-26T14:03:02.583Z,966.5
2017-02-26T14:04:13.289Z,966.54
2017-02-26T14:05:24.007Z,966.75
2017-02-26T14:06:34.747Z,966.76
2017-02-26T14:07:45.471Z,966.76
2017-02-26T14:08:55.784Z,966.63
2017-02-26T14:10:06.492Z,966.72
2017-02-26T14:11:16.420Z,966.44
2017-02-26T14:12:27.139Z,966.38
2017-02-26T14:13:37.451Z,966.37
2017-02-26T14:14:48.191Z,966.47
2017-02-26T14:15:58.967Z,966.35
2017-02-26T14:17:09.284Z,966.34
2017-02-26T14:18:20.001Z,966.4
2017-02-26T14:19:30.729Z,966.36
2017-02-26T14:20:41.046Z,966.29
2017-02-26T14:21:51.747Z,966.31
2017-02-26T14:23:02.470Z,966.3
2017-02-26T14:24:12.794Z,966.38
2017-02-26T14:25:23.095Z,966.38
2017-02-26T14:26:33.815Z,966.6
2017-02-26T14:27:43.730Z,966.36
2017-02-26T14:28:54.441Z,966.19
2017-02-26T14:30:05.149Z,966.37
2017-02-26T14:31:15.477Z,966.61
2017-02-26T14:32:26.195Z,966.7
2017-02-26T14:33:36.102Z,966.65
2017-02-26T14:34:46.004Z,966.49
2017-02-26T14:35:56.722Z,966.22
2017-02-26T14:37:07.458Z,966.11
2017-02-26T14:38:18.170Z,966.19
2017-02-26T14:39:28.931Z,966.18
2017-02-26T14:40:39.253Z,966.19
2017-02-26T14:41:49.563Z,966.22
2017-02-26T14:43:00.271Z,966.22
2017-02-26T14:44:10.987Z,966.15
2017-02-26T14:45:21.324Z,966.09